sensor_id;sensor_type;location;lat;lon;timestamp;temperature;humidity
65826;DHT22;52586;-43.152;172.732;2022-10-23T00:02:29;21.20;38.00
65826;DHT22;52586;-43.152;172.732;2022-10-23T00:05:00;21.20;38.20
65826;DHT22;52586;-43.152;172.732;2022-10-23T00:07:31;21.30;38.70
65826;DHT22;52586;-43.152;172.732;2022-10-23T00:10:01;21.30;38.80
65826;DHT22;52586;-43.152;172.732;2022-10-23T00:12:32;21.40;39.00
65826;DHT22;52586;-43.152;172.732;2022-10-23T00:15:05;21.40;39.20
65826;DHT22;52586;-43.152;172.732;2022-10-23T00:17:36;21.40;39.30
65826;DHT22;52586;-43.152;172.732;2022-10-23T00:20:07;21.50;39.50
65826;DHT22;52586;-43.152;172.732;2022-10-23T00:22:38;21.50;39.50
65826;DHT22;52586;-43.152;172.732;2022-10-23T00:25:09;21.50;39.60
65826;DHT22;52586;-43.152;172.732;2022-10-23T00:27:40;21.50;39.50
65826;DHT22;52586;-43.152;172.732;2022-10-23T00:30:13;21.60;39.60
65826;DHT22;52586;-43.152;172.732;2022-10-23T00:32:44;21.60;39.60
65826;DHT22;52586;-43.152;172.732;2022-10-23T00:35:14;21.70;39.70
65826;DHT22;52586;-43.152;172.732;2022-10-23T00:37:45;21.70;39.80
65826;DHT22;52586;-43.152;172.732;2022-10-23T00:40:16;21.80;39.90
65826;DHT22;52586;-43.152;172.732;2022-10-23T00:42:47;21.80;39.90
65826;DHT22;52586;-43.152;172.732;2022-10-23T00:45:24;21.90;40.00
65826;DHT22;52586;-43.152;172.732;2022-10-23T00:47:58;21.90;40.00
65826;DHT22;52586;-43.152;172.732;2022-10-23T00:50:30;21.90;40.00
65826;DHT22;52586;-43.152;172.732;2022-10-23T00:53:02;21.90;39.80
65826;DHT22;52586;-43.152;172.732;2022-10-23T00:55:34;22.00;39.80
65826;DHT22;52586;-43.152;172.732;2022-10-23T00:58:05;22.00;39.80
65826;DHT22;52586;-43.152;172.732;2022-10-23T01:00:45;22.00;39.70
65826;DHT22;52586;-43.152;172.732;2022-10-23T01:03:17;22.10;39.60
65826;DHT22;52586;-43.152;172.732;2022-10-23T01:05:50;22.10;39.50
65826;DHT22;52586;-43.152;172.732;2022-10-23T01:08:28;22.20;39.50
65826;DHT22;52586;-43.152;172.732;2022-10-23T01:11:04;22.20;39.40
65826;DHT22;52586;-43.152;172.732;2022-10-23T01:13:45;22.20;39.40
65826;DHT22;52586;-43.152;172.732;2022-10-23T01:16:22;22.30;39.50
65826;DHT22;52586;-43.152;172.732;2022-10-23T01:19:00;22.30;40.20
65826;DHT22;52586;-43.152;172.732;2022-10-23T01:21:41;22.30;39.70
65826;DHT22;52586;-43.152;172.732;2022-10-23T01:24:29;22.40;39.70
65826;DHT22;52586;-43.152;172.732;2022-10-23T01:27:23;22.40;39.60
65826;DHT22;52586;-43.152;172.732;2022-10-23T01:30:04;22.40;39.60
65826;DHT22;52586;-43.152;172.732;2022-10-23T01:32:40;22.50;39.70
65826;DHT22;52586;-43.152;172.732;2022-10-23T01:35:18;22.50;39.80
65826;DHT22;52586;-43.152;172.732;2022-10-23T01:37:55;22.50;39.80
65826;DHT22;52586;-43.152;172.732;2022-10-23T01:40:32;22.60;39.80
65826;DHT22;52586;-43.152;172.732;2022-10-23T01:43:07;22.60;39.80
65826;DHT22;52586;-43.152;172.732;2022-10-23T01:45:44;22.70;39.90
65826;DHT22;52586;-43.152;172.732;2022-10-23T01:48:20;22.70;39.80
65826;DHT22;52586;-43.152;172.732;2022-10-23T01:50:53;22.70;39.80
65826;DHT22;52586;-43.152;172.732;2022-10-23T01:53:27;22.80;39.70
65826;DHT22;52586;-43.152;172.732;2022-10-23T01:55:59;22.80;39.80
65826;DHT22;52586;-43.152;172.732;2022-10-23T01:58:35;22.80;39.70
65826;DHT22;52586;-43.152;172.732;2022-10-23T02:01:06;22.90;39.60
65826;DHT22;52586;-43.152;172.732;2022-10-23T02:03:39;22.90;39.60
65826;DHT22;52586;-43.152;172.732;2022-10-23T02:06:11;23.00;39.80
65826;DHT22;52586;-43.152;172.732;2022-10-23T02:08:42;23.00;40.00
65826;DHT22;52586;-43.152;172.732;2022-10-23T02:11:14;23.00;40.00
65826;DHT22;52586;-43.152;172.732;2022-10-23T02:13:53;23.10;39.90
65826;DHT22;52586;-43.152;172.732;2022-10-23T02:16:31;23.10;39.70
65826;DHT22;52586;-43.152;172.732;2022-10-23T02:19:10;23.10;39.80
65826;DHT22;52586;-43.152;172.732;2022-10-23T02:21:49;23.20;39.80
65826;DHT22;52586;-43.152;172.732;2022-10-23T02:24:24;23.20;39.60
65826;DHT22;52586;-43.152;172.732;2022-10-23T02:26:56;23.30;39.80
65826;DHT22;52586;-43.152;172.732;2022-10-23T02:29:32;23.30;39.80
65826;DHT22;52586;-43.152;172.732;2022-10-23T02:32:06;23.40;39.90
65826;DHT22;52586;-43.152;172.732;2022-10-23T02:34:38;23.30;39.90
65826;DHT22;52586;-43.152;172.732;2022-10-23T02:37:09;23.40;39.80
65826;DHT22;52586;-43.152;172.732;2022-10-23T02:39:39;23.40;39.80
65826;DHT22;52586;-43.152;172.732;2022-10-23T02:42:13;23.50;39.80
65826;DHT22;52586;-43.152;172.732;2022-10-23T02:44:58;23.50;38.60
65826;DHT22;52586;-43.152;172.732;2022-10-23T02:47:42;23.50;37.70
65826;DHT22;52586;-43.152;172.732;2022-10-23T02:50:21;23.60;37.30
65826;DHT22;52586;-43.152;172.732;2022-10-23T02:53:01;23.70;37.10
65826;DHT22;52586;-43.152;172.732;2022-10-23T02:55:41;23.70;36.80
65826;DHT22;52586;-43.152;172.732;2022-10-23T02:58:20;23.70;36.40
65826;DHT22;52586;-43.152;172.732;2022-10-23T03:00:57;23.80;36.00
65826;DHT22;52586;-43.152;172.732;2022-10-23T03:03:32;23.80;35.70
65826;DHT22;52586;-43.152;172.732;2022-10-23T03:06:04;23.90;35.60
65826;DHT22;52586;-43.152;172.732;2022-10-23T03:08:42;23.90;35.40
65826;DHT22;52586;-43.152;172.732;2022-10-23T03:11:13;24.00;35.30
65826;DHT22;52586;-43.152;172.732;2022-10-23T03:13:43;24.00;35.20
65826;DHT22;52586;-43.152;172.732;2022-10-23T03:16:16;24.00;35.30
65826;DHT22;52586;-43.152;172.732;2022-10-23T03:18:46;24.10;35.00
65826;DHT22;52586;-43.152;172.732;2022-10-23T03:21:17;24.10;34.90
65826;DHT22;52586;-43.152;172.732;2022-10-23T03:23:48;24.20;35.60
65826;DHT22;52586;-43.152;172.732;2022-10-23T03:26:18;24.20;35.00
65826;DHT22;52586;-43.152;172.732;2022-10-23T03:28:49;24.30;34.80
65826;DHT22;52586;-43.152;172.732;2022-10-23T03:31:21;24.30;34.80
65826;DHT22;52586;-43.152;172.732;2022-10-23T03:33:52;24.30;34.50
65826;DHT22;52586;-43.152;172.732;2022-10-23T03:36:22;24.40;35.00
65826;DHT22;52586;-43.152;172.732;2022-10-23T03:38:53;24.40;35.20
65826;DHT22;52586;-43.152;172.732;2022-10-23T03:41:26;24.50;35.50
65826;DHT22;52586;-43.152;172.732;2022-10-23T03:43:57;24.50;35.60
65826;DHT22;52586;-43.152;172.732;2022-10-23T03:46:29;24.50;35.80
65826;DHT22;52586;-43.152;172.732;2022-10-23T03:49:00;24.60;35.90
65826;DHT22;52586;-43.152;172.732;2022-10-23T03:51:31;24.60;36.00
65826;DHT22;52586;-43.152;172.732;2022-10-23T03:54:01;24.60;36.10
65826;DHT22;52586;-43.152;172.732;2022-10-23T03:56:32;24.70;36.40
65826;DHT22;52586;-43.152;172.732;2022-10-23T03:59:03;24.70;35.30
65826;DHT22;52586;-43.152;172.732;2022-10-23T04:01:35;24.70;35.50
65826;DHT22;52586;-43.152;172.732;2022-10-23T04:04:06;24.80;35.50
65826;DHT22;52586;-43.152;172.732;2022-10-23T04:06:37;24.80;35.70
65826;DHT22;52586;-43.152;172.732;2022-10-23T04:09:07;24.80;35.80
65826;DHT22;52586;-43.152;172.732;2022-10-23T04:11:38;24.90;35.90
65826;DHT22;52586;-43.152;172.732;2022-10-23T04:14:11;24.90;36.00
65826;DHT22;52586;-43.152;172.732;2022-10-23T04:16:43;24.90;36.10
65826;DHT22;52586;-43.152;172.732;2022-10-23T04:19:14;24.90;36.20
65826;DHT22;52586;-43.152;172.732;2022-10-23T04:21:45;25.00;36.40
65826;DHT22;52586;-43.152;172.732;2022-10-23T04:24:16;25.00;36.60
65826;DHT22;52586;-43.152;172.732;2022-10-23T04:26:46;25.00;36.70
65826;DHT22;52586;-43.152;172.732;2022-10-23T04:29:17;25.00;36.70
65826;DHT22;52586;-43.152;172.732;2022-10-23T04:31:51;25.10;36.70
65826;DHT22;52586;-43.152;172.732;2022-10-23T04:34:22;25.10;36.60
65826;DHT22;52586;-43.152;172.732;2022-10-23T04:36:52;25.10;36.80
65826;DHT22;52586;-43.152;172.732;2022-10-23T04:39:23;25.10;36.60
65826;DHT22;52586;-43.152;172.732;2022-10-23T04:41:53;25.10;36.50
65826;DHT22;52586;-43.152;172.732;2022-10-23T04:44:26;25.10;36.70
65826;DHT22;52586;-43.152;172.732;2022-10-23T04:46:59;25.10;36.70
65826;DHT22;52586;-43.152;172.732;2022-10-23T04:49:29;25.20;36.60
65826;DHT22;52586;-43.152;172.732;2022-10-23T04:52:00;25.20;36.40
65826;DHT22;52586;-43.152;172.732;2022-10-23T04:54:36;25.20;36.30
65826;DHT22;52586;-43.152;172.732;2022-10-23T04:57:07;25.10;36.10
65826;DHT22;52586;-43.152;172.732;2022-10-23T04:59:38;25.20;36.30
65826;DHT22;52586;-43.152;172.732;2022-10-23T05:02:11;25.10;36.40
65826;DHT22;52586;-43.152;172.732;2022-10-23T05:04:42;25.20;36.80
65826;DHT22;52586;-43.152;172.732;2022-10-23T05:07:12;25.20;36.90
65826;DHT22;52586;-43.152;172.732;2022-10-23T05:09:43;25.20;36.60
65826;DHT22;52586;-43.152;172.732;2022-10-23T05:12:14;25.20;36.50
65826;DHT22;52586;-43.152;172.732;2022-10-23T05:14:44;25.20;36.40
65826;DHT22;52586;-43.152;172.732;2022-10-23T05:17:19;25.20;36.30
65826;DHT22;52586;-43.152;172.732;2022-10-23T05:19:52;25.20;36.30
65826;DHT22;52586;-43.152;172.732;2022-10-23T05:22:25;25.20;36.50
65826;DHT22;52586;-43.152;172.732;2022-10-23T05:24:56;25.20;36.40
65826;DHT22;52586;-43.152;172.732;2022-10-23T05:27:28;25.20;36.30
65826;DHT22;52586;-43.152;172.732;2022-10-23T05:29:59;25.10;36.20
65826;DHT22;52586;-43.152;172.732;2022-10-23T05:32:32;25.20;36.30
65826;DHT22;52586;-43.152;172.732;2022-10-23T05:35:06;25.10;36.10
65826;DHT22;52586;-43.152;172.732;2022-10-23T05:37:39;25.10;36.20
65826;DHT22;52586;-43.152;172.732;2022-10-23T05:40:11;25.10;36.30
65826;DHT22;52586;-43.152;172.732;2022-10-23T05:42:42;25.10;36.30
65826;DHT22;52586;-43.152;172.732;2022-10-23T05:45:13;25.10;36.30
65826;DHT22;52586;-43.152;172.732;2022-10-23T05:47:46;25.20;36.40
65826;DHT22;52586;-43.152;172.732;2022-10-23T05:50:17;25.10;36.40
65826;DHT22;52586;-43.152;172.732;2022-10-23T05:52:48;25.10;36.40
65826;DHT22;52586;-43.152;172.732;2022-10-23T05:55:19;25.10;36.40
65826;DHT22;52586;-43.152;172.732;2022-10-23T05:57:49;25.10;36.20
65826;DHT22;52586;-43.152;172.732;2022-10-23T06:00:20;25.10;36.00
65826;DHT22;52586;-43.152;172.732;2022-10-23T06:02:53;25.10;35.90
65826;DHT22;52586;-43.152;172.732;2022-10-23T06:05:23;25.10;35.70
65826;DHT22;52586;-43.152;172.732;2022-10-23T06:07:57;25.10;35.80
65826;DHT22;52586;-43.152;172.732;2022-10-23T06:10:29;25.10;35.80
65826;DHT22;52586;-43.152;172.732;2022-10-23T06:13:00;25.00;35.70
65826;DHT22;52586;-43.152;172.732;2022-10-23T06:15:31;25.00;35.80
65826;DHT22;52586;-43.152;172.732;2022-10-23T06:18:04;25.00;35.80
65826;DHT22;52586;-43.152;172.732;2022-10-23T06:20:36;25.00;35.70
65826;DHT22;52586;-43.152;172.732;2022-10-23T06:23:07;25.00;35.70
65826;DHT22;52586;-43.152;172.732;2022-10-23T06:25:38;25.00;34.80
65826;DHT22;52586;-43.152;172.732;2022-10-23T06:28:08;24.90;34.90
65826;DHT22;52586;-43.152;172.732;2022-10-23T06:30:39;24.90;34.80
65826;DHT22;52586;-43.152;172.732;2022-10-23T06:33:12;24.90;35.40
65826;DHT22;52586;-43.152;172.732;2022-10-23T06:35:42;24.80;34.70
65826;DHT22;52586;-43.152;172.732;2022-10-23T06:38:13;24.80;34.90
65826;DHT22;52586;-43.152;172.732;2022-10-23T06:40:44;24.80;34.80
65826;DHT22;52586;-43.152;172.732;2022-10-23T06:43:21;24.80;34.70
65826;DHT22;52586;-43.152;172.732;2022-10-23T06:45:51;24.70;34.60
65826;DHT22;52586;-43.152;172.732;2022-10-23T06:48:24;24.70;34.50
65826;DHT22;52586;-43.152;172.732;2022-10-23T06:50:55;24.70;34.60
65826;DHT22;52586;-43.152;172.732;2022-10-23T06:53:25;24.60;34.70
65826;DHT22;52586;-43.152;172.732;2022-10-23T06:55:59;24.60;34.80
65826;DHT22;52586;-43.152;172.732;2022-10-23T06:58:30;24.50;34.80
65826;DHT22;52586;-43.152;172.732;2022-10-23T07:01:01;24.50;34.80
65826;DHT22;52586;-43.152;172.732;2022-10-23T07:03:34;24.50;34.90
65826;DHT22;52586;-43.152;172.732;2022-10-23T07:06:06;24.50;35.00
65826;DHT22;52586;-43.152;172.732;2022-10-23T07:08:37;24.40;34.90
65826;DHT22;52586;-43.152;172.732;2022-10-23T07:11:08;24.40;35.00
65826;DHT22;52586;-43.152;172.732;2022-10-23T07:13:40;24.40;35.00
65826;DHT22;52586;-43.152;172.732;2022-10-23T07:16:12;24.30;35.00
65826;DHT22;52586;-43.152;172.732;2022-10-23T07:18:45;24.30;35.00
65826;DHT22;52586;-43.152;172.732;2022-10-23T07:21:16;24.30;34.90
65826;DHT22;52586;-43.152;172.732;2022-10-23T07:23:47;24.30;35.00
65826;DHT22;52586;-43.152;172.732;2022-10-23T07:26:17;24.20;34.80
65826;DHT22;52586;-43.152;172.732;2022-10-23T07:28:48;24.20;34.90
65826;DHT22;52586;-43.152;172.732;2022-10-23T07:31:22;24.20;35.00
65826;DHT22;52586;-43.152;172.732;2022-10-23T07:33:54;24.20;35.00
65826;DHT22;52586;-43.152;172.732;2022-10-23T07:36:25;24.10;35.10
65826;DHT22;52586;-43.152;172.732;2022-10-23T07:38:56;24.00;35.00
65826;DHT22;52586;-43.152;172.732;2022-10-23T07:41:27;24.00;35.10
65826;DHT22;52586;-43.152;172.732;2022-10-23T07:43:57;24.00;35.20
65826;DHT22;52586;-43.152;172.732;2022-10-23T07:46:28;24.00;35.10
65826;DHT22;52586;-43.152;172.732;2022-10-23T07:49:01;24.00;35.20
65826;DHT22;52586;-43.152;172.732;2022-10-23T07:51:31;24.00;35.10
65826;DHT22;52586;-43.152;172.732;2022-10-23T07:54:02;23.90;35.10
65826;DHT22;52586;-43.152;172.732;2022-10-23T07:56:33;23.80;35.10
65826;DHT22;52586;-43.152;172.732;2022-10-23T07:59:04;23.80;35.10
65826;DHT22;52586;-43.152;172.732;2022-10-23T08:01:36;23.80;35.10
65826;DHT22;52586;-43.152;172.732;2022-10-23T08:04:10;23.80;35.20
65826;DHT22;52586;-43.152;172.732;2022-10-23T08:06:41;23.70;35.20
65826;DHT22;52586;-43.152;172.732;2022-10-23T08:09:11;23.70;35.30
65826;DHT22;52586;-43.152;172.732;2022-10-23T08:11:42;23.70;35.50
65826;DHT22;52586;-43.152;172.732;2022-10-23T08:14:13;23.60;35.40
65826;DHT22;52586;-43.152;172.732;2022-10-23T08:16:43;23.60;35.50
65826;DHT22;52586;-43.152;172.732;2022-10-23T08:19:16;23.60;35.50
65826;DHT22;52586;-43.152;172.732;2022-10-23T08:21:47;23.60;35.50
65826;DHT22;52586;-43.152;172.732;2022-10-23T08:24:21;23.60;35.50
65826;DHT22;52586;-43.152;172.732;2022-10-23T08:26:52;23.50;35.50
65826;DHT22;52586;-43.152;172.732;2022-10-23T08:29:22;23.50;35.50
65826;DHT22;52586;-43.152;172.732;2022-10-23T08:31:54;23.40;35.40
65826;DHT22;52586;-43.152;172.732;2022-10-23T08:34:27;23.40;35.50
65826;DHT22;52586;-43.152;172.732;2022-10-23T08:37:00;23.40;35.60
65826;DHT22;52586;-43.152;172.732;2022-10-23T08:39:30;23.40;35.60
65826;DHT22;52586;-43.152;172.732;2022-10-23T08:42:01;23.30;35.70
65826;DHT22;52586;-43.152;172.732;2022-10-23T08:44:35;23.30;35.80
65826;DHT22;52586;-43.152;172.732;2022-10-23T08:47:10;23.30;35.90
65826;DHT22;52586;-43.152;172.732;2022-10-23T08:49:48;23.30;36.00
65826;DHT22;52586;-43.152;172.732;2022-10-23T08:52:23;23.30;36.10
65826;DHT22;52586;-43.152;172.732;2022-10-23T08:55:04;23.20;36.00
65826;DHT22;52586;-43.152;172.732;2022-10-23T08:57:40;23.20;36.10
65826;DHT22;52586;-43.152;172.732;2022-10-23T09:00:14;23.20;36.00
65826;DHT22;52586;-43.152;172.732;2022-10-23T09:02:46;23.10;36.00
65826;DHT22;52586;-43.152;172.732;2022-10-23T09:05:24;23.10;36.10
65826;DHT22;52586;-43.152;172.732;2022-10-23T09:08:10;23.10;36.30
65826;DHT22;52586;-43.152;172.732;2022-10-23T09:11:00;23.00;36.50
65826;DHT22;52586;-43.152;172.732;2022-10-23T09:13:56;23.00;36.60
65826;DHT22;52586;-43.152;172.732;2022-10-23T09:16:49;23.00;36.80
65826;DHT22;52586;-43.152;172.732;2022-10-23T09:19:23;23.00;36.90
65826;DHT22;52586;-43.152;172.732;2022-10-23T09:21:58;22.90;37.00
65826;DHT22;52586;-43.152;172.732;2022-10-23T09:24:29;22.90;37.10
65826;DHT22;52586;-43.152;172.732;2022-10-23T09:27:00;22.90;37.10
65826;DHT22;52586;-43.152;172.732;2022-10-23T09:29:33;22.90;37.20
65826;DHT22;52586;-43.152;172.732;2022-10-23T09:32:05;22.90;37.30
65826;DHT22;52586;-43.152;172.732;2022-10-23T09:34:36;22.80;37.30
65826;DHT22;52586;-43.152;172.732;2022-10-23T09:37:22;22.80;37.30
65826;DHT22;52586;-43.152;172.732;2022-10-23T09:40:14;22.80;37.40
65826;DHT22;52586;-43.152;172.732;2022-10-23T09:42:54;22.70;37.50
65826;DHT22;52586;-43.152;172.732;2022-10-23T09:45:29;22.70;37.50
65826;DHT22;52586;-43.152;172.732;2022-10-23T09:48:11;22.70;37.50
65826;DHT22;52586;-43.152;172.732;2022-10-23T09:50:50;22.70;37.60
65826;DHT22;52586;-43.152;172.732;2022-10-23T09:53:29;22.60;37.70
65826;DHT22;52586;-43.152;172.732;2022-10-23T09:56:03;22.60;37.80
65826;DHT22;52586;-43.152;172.732;2022-10-23T09:58:35;22.60;37.80
65826;DHT22;52586;-43.152;172.732;2022-10-23T10:01:22;22.60;37.90
65826;DHT22;52586;-43.152;172.732;2022-10-23T10:03:53;22.50;37.90
65826;DHT22;52586;-43.152;172.732;2022-10-23T10:06:25;22.50;38.00
65826;DHT22;52586;-43.152;172.732;2022-10-23T10:09:01;22.50;38.00
65826;DHT22;52586;-43.152;172.732;2022-10-23T10:11:36;22.50;38.00
65826;DHT22;52586;-43.152;172.732;2022-10-23T10:17:17;22.40;38.20
65826;DHT22;52586;-43.152;172.732;2022-10-23T10:20:03;22.40;38.30
65826;DHT22;52586;-43.152;172.732;2022-10-23T10:22:41;22.40;38.40
65826;DHT22;52586;-43.152;172.732;2022-10-23T10:25:18;22.40;38.40
65826;DHT22;52586;-43.152;172.732;2022-10-23T10:27:58;22.40;38.50
65826;DHT22;52586;-43.152;172.732;2022-10-23T10:30:35;22.30;38.50
65826;DHT22;52586;-43.152;172.732;2022-10-23T10:33:15;22.30;38.50
65826;DHT22;52586;-43.152;172.732;2022-10-23T10:35:51;22.30;38.60
65826;DHT22;52586;-43.152;172.732;2022-10-23T10:38:42;22.20;38.50
65826;DHT22;52586;-43.152;172.732;2022-10-23T10:41:43;22.20;38.50
65826;DHT22;52586;-43.152;172.732;2022-10-23T10:44:46;22.20;38.40
65826;DHT22;52586;-43.152;172.732;2022-10-23T10:47:21;22.20;38.40
65826;DHT22;52586;-43.152;172.732;2022-10-23T10:50:05;22.20;38.40
65826;DHT22;52586;-43.152;172.732;2022-10-23T10:52:42;22.20;38.50
65826;DHT22;52586;-43.152;172.732;2022-10-23T10:55:20;22.10;38.60
65826;DHT22;52586;-43.152;172.732;2022-10-23T10:57:56;22.10;38.70
65826;DHT22;52586;-43.152;172.732;2022-10-23T11:00:29;22.10;38.80
65826;DHT22;52586;-43.152;172.732;2022-10-23T11:03:03;22.10;38.90
65826;DHT22;52586;-43.152;172.732;2022-10-23T11:05:37;22.10;38.90
65826;DHT22;52586;-43.152;172.732;2022-10-23T11:08:13;22.10;38.90
65826;DHT22;52586;-43.152;172.732;2022-10-23T11:10:45;22.00;38.80
65826;DHT22;52586;-43.152;172.732;2022-10-23T11:13:25;22.00;38.80
65826;DHT22;52586;-43.152;172.732;2022-10-23T11:15:57;22.00;38.90
65826;DHT22;52586;-43.152;172.732;2022-10-23T11:18:31;22.00;38.80
65826;DHT22;52586;-43.152;172.732;2022-10-23T11:21:10;21.90;38.70
65826;DHT22;52586;-43.152;172.732;2022-10-23T11:27:19;21.90;38.70
65826;DHT22;52586;-43.152;172.732;2022-10-23T11:30:16;21.90;38.80
65826;DHT22;52586;-43.152;172.732;2022-10-23T11:33:15;21.90;38.80
65826;DHT22;52586;-43.152;172.732;2022-10-23T11:35:58;21.90;38.90
65826;DHT22;52586;-43.152;172.732;2022-10-23T11:38:32;21.80;38.90
65826;DHT22;52586;-43.152;172.732;2022-10-23T11:41:15;21.80;39.00
65826;DHT22;52586;-43.152;172.732;2022-10-23T11:43:50;21.70;39.00
65826;DHT22;52586;-43.152;172.732;2022-10-23T11:46:34;21.80;39.10
65826;DHT22;52586;-43.152;172.732;2022-10-23T11:49:17;21.70;39.00
65826;DHT22;52586;-43.152;172.732;2022-10-23T11:52:00;21.70;39.00
65826;DHT22;52586;-43.152;172.732;2022-10-23T11:54:30;21.70;39.00
65826;DHT22;52586;-43.152;172.732;2022-10-23T11:57:18;21.70;39.00
65826;DHT22;52586;-43.152;172.732;2022-10-23T11:59:53;21.70;39.00
65826;DHT22;52586;-43.152;172.732;2022-10-23T12:02:36;21.70;39.00
65826;DHT22;52586;-43.152;172.732;2022-10-23T12:05:09;21.60;39.10
65826;DHT22;52586;-43.152;172.732;2022-10-23T12:07:56;21.60;39.10
65826;DHT22;52586;-43.152;172.732;2022-10-23T12:10:30;21.60;39.10
65826;DHT22;52586;-43.152;172.732;2022-10-23T12:13:02;21.60;39.20
65826;DHT22;52586;-43.152;172.732;2022-10-23T12:15:33;21.50;39.10
65826;DHT22;52586;-43.152;172.732;2022-10-23T12:18:16;21.50;39.20
65826;DHT22;52586;-43.152;172.732;2022-10-23T12:20:50;21.50;39.20
65826;DHT22;52586;-43.152;172.732;2022-10-23T12:26:42;21.50;39.20
65826;DHT22;52586;-43.152;172.732;2022-10-23T12:29:25;21.50;39.10
65826;DHT22;52586;-43.152;172.732;2022-10-23T12:32:03;21.50;39.10
65826;DHT22;52586;-43.152;172.732;2022-10-23T12:34:45;21.50;39.10
65826;DHT22;52586;-43.152;172.732;2022-10-23T12:37:32;21.40;39.20
65826;DHT22;52586;-43.152;172.732;2022-10-23T12:40:07;21.40;39.30
65826;DHT22;52586;-43.152;172.732;2022-10-23T12:42:38;21.40;39.30
65826;DHT22;52586;-43.152;172.732;2022-10-23T12:45:16;21.40;39.30
65826;DHT22;52586;-43.152;172.732;2022-10-23T12:47:48;21.30;39.40
65826;DHT22;52586;-43.152;172.732;2022-10-23T12:50:23;21.30;39.40
65826;DHT22;52586;-43.152;172.732;2022-10-23T12:52:55;21.30;39.40
65826;DHT22;52586;-43.152;172.732;2022-10-23T12:55:28;21.30;39.40
65826;DHT22;52586;-43.152;172.732;2022-10-23T12:58:01;21.30;39.40
65826;DHT22;52586;-43.152;172.732;2022-10-23T13:00:31;21.30;39.40
65826;DHT22;52586;-43.152;172.732;2022-10-23T13:03:03;21.30;39.40
65826;DHT22;52586;-43.152;172.732;2022-10-23T13:05:35;21.30;39.40
65826;DHT22;52586;-43.152;172.732;2022-10-23T13:08:07;21.30;39.40
65826;DHT22;52586;-43.152;172.732;2022-10-23T13:10:38;21.20;39.50
65826;DHT22;52586;-43.152;172.732;2022-10-23T13:13:12;21.20;39.50
65826;DHT22;52586;-43.152;172.732;2022-10-23T13:15:44;21.20;39.50
65826;DHT22;52586;-43.152;172.732;2022-10-23T13:18:15;21.20;40.30
65826;DHT22;52586;-43.152;172.732;2022-10-23T13:20:58;21.20;39.70
65826;DHT22;52586;-43.152;172.732;2022-10-23T13:23:31;21.10;39.60
65826;DHT22;52586;-43.152;172.732;2022-10-23T13:26:03;21.10;39.60
65826;DHT22;52586;-43.152;172.732;2022-10-23T13:28:40;21.10;39.60
65826;DHT22;52586;-43.152;172.732;2022-10-23T13:31:26;21.10;39.60
65826;DHT22;52586;-43.152;172.732;2022-10-23T13:34:16;21.10;39.60
65826;DHT22;52586;-43.152;172.732;2022-10-23T13:36:54;21.10;39.60
65826;DHT22;52586;-43.152;172.732;2022-10-23T13:39:27;21.10;39.60
65826;DHT22;52586;-43.152;172.732;2022-10-23T13:42:05;21.10;39.70
65826;DHT22;52586;-43.152;172.732;2022-10-23T13:44:39;21.10;39.70
65826;DHT22;52586;-43.152;172.732;2022-10-23T13:47:12;21.10;39.80
65826;DHT22;52586;-43.152;172.732;2022-10-23T13:49:43;21.10;39.90
65826;DHT22;52586;-43.152;172.732;2022-10-23T13:52:18;21.00;39.90
65826;DHT22;52586;-43.152;172.732;2022-10-23T13:54:50;21.00;39.90
65826;DHT22;52586;-43.152;172.732;2022-10-23T13:57:21;21.00;40.00
65826;DHT22;52586;-43.152;172.732;2022-10-23T13:59:51;21.00;40.00
65826;DHT22;52586;-43.152;172.732;2022-10-23T14:02:23;21.00;40.00
65826;DHT22;52586;-43.152;172.732;2022-10-23T14:04:53;21.00;40.10
65826;DHT22;52586;-43.152;172.732;2022-10-23T14:07:26;21.00;40.10
65826;DHT22;52586;-43.152;172.732;2022-10-23T14:09:56;21.00;40.10
65826;DHT22;52586;-43.152;172.732;2022-10-23T14:12:27;21.00;40.20
65826;DHT22;52586;-43.152;172.732;2022-10-23T14:14:58;20.90;40.10
65826;DHT22;52586;-43.152;172.732;2022-10-23T14:17:28;20.90;40.10
65826;DHT22;52586;-43.152;172.732;2022-10-23T14:19:59;20.90;40.20
65826;DHT22;52586;-43.152;172.732;2022-10-23T14:22:31;20.90;40.20
65826;DHT22;52586;-43.152;172.732;2022-10-23T14:25:02;20.90;40.30
65826;DHT22;52586;-43.152;172.732;2022-10-23T14:27:33;20.90;40.40
65826;DHT22;52586;-43.152;172.732;2022-10-23T14:30:04;20.80;40.30
65826;DHT22;52586;-43.152;172.732;2022-10-23T14:32:35;20.80;40.30
65826;DHT22;52586;-43.152;172.732;2022-10-23T14:35:06;20.80;40.40
65826;DHT22;52586;-43.152;172.732;2022-10-23T14:37:38;20.80;40.40
65826;DHT22;52586;-43.152;172.732;2022-10-23T14:40:09;20.80;40.40
65826;DHT22;52586;-43.152;172.732;2022-10-23T14:42:40;20.80;40.40
65826;DHT22;52586;-43.152;172.732;2022-10-23T14:45:11;20.80;40.40
65826;DHT22;52586;-43.152;172.732;2022-10-23T14:47:41;20.80;40.40
65826;DHT22;52586;-43.152;172.732;2022-10-23T14:50:13;20.80;40.50
65826;DHT22;52586;-43.152;172.732;2022-10-23T14:52:46;20.80;40.60
65826;DHT22;52586;-43.152;172.732;2022-10-23T14:55:17;20.80;40.60
65826;DHT22;52586;-43.152;172.732;2022-10-23T14:57:47;20.70;40.60
65826;DHT22;52586;-43.152;172.732;2022-10-23T15:00:18;20.80;40.70
65826;DHT22;52586;-43.152;172.732;2022-10-23T15:02:49;20.70;40.70
65826;DHT22;52586;-43.152;172.732;2022-10-23T15:05:19;20.70;40.70
65826;DHT22;52586;-43.152;172.732;2022-10-23T15:07:53;20.70;40.70
65826;DHT22;52586;-43.152;172.732;2022-10-23T15:10:25;20.70;40.70
65826;DHT22;52586;-43.152;172.732;2022-10-23T15:12:55;20.70;40.70
65826;DHT22;52586;-43.152;172.732;2022-10-23T15:15:26;20.70;40.70
65826;DHT22;52586;-43.152;172.732;2022-10-23T15:17:57;20.70;40.80
65826;DHT22;52586;-43.152;172.732;2022-10-23T15:20:27;20.70;40.80
65826;DHT22;52586;-43.152;172.732;2022-10-23T15:23:00;20.70;40.80
65826;DHT22;52586;-43.152;172.732;2022-10-23T15:25:30;20.70;40.90
65826;DHT22;52586;-43.152;172.732;2022-10-23T15:28:01;20.60;40.80
65826;DHT22;52586;-43.152;172.732;2022-10-23T15:30:32;20.60;40.90
65826;DHT22;52586;-43.152;172.732;2022-10-23T15:33:02;20.60;41.00
65826;DHT22;52586;-43.152;172.732;2022-10-23T15:35:33;20.60;41.00
65826;DHT22;52586;-43.152;172.732;2022-10-23T15:38:06;20.60;41.00
65826;DHT22;52586;-43.152;172.732;2022-10-23T15:40:37;20.60;41.00